sensor_id;sensor_type;location;lat;lon;timestamp;P1;durP1;ratioP1;P2;durP2;ratioP2
5225;SDS011;2632;51.666;7.146;2023-07-22T00:00:38;13.13;;;5.00;;
5225;SDS011;2632;51.666;7.146;2023-07-22T00:03:04;11.83;;;5.50;;
5225;SDS011;2632;51.666;7.146;2023-07-22T00:05:31;11.73;;;4.67;;
5225;SDS011;2632;51.666;7.146;2023-07-22T00:07:58;13.60;;;5.63;;
5225;SDS011;2632;51.666;7.146;2023-07-22T00:10:24;13.77;;;5.40;;
5225;SDS011;2632;51.666;7.146;2023-07-22T00:12:51;11.23;;;5.43;;
5225;SDS011;2632;51.666;7.146;2023-07-22T00:15:18;14.93;;;6.40;;
5225;SDS011;2632;51.666;7.146;2023-07-22T00:17:46;11.57;;;5.90;;
5225;SDS011;2632;51.666;7.146;2023-07-22T00:20:13;14.27;;;6.20;;
5225;SDS011;2632;51.666;7.146;2023-07-22T00:22:43;12.70;;;5.57;;
5225;SDS011;2632;51.666;7.146;2023-07-22T00:25:10;12.83;;;5.90;;
5225;SDS011;2632;51.666;7.146;2023-07-22T00:27:37;16.40;;;6.17;;
5225;SDS011;2632;51.666;7.146;2023-07-22T00:30:05;17.40;;;7.47;;
5225;SDS011;2632;51.666;7.146;2023-07-22T00:32:33;14.90;;;5.73;;
5225;SDS011;2632;51.666;7.146;2023-07-22T00:35:00;13.33;;;5.70;;
5225;SDS011;2632;51.666;7.146;2023-07-22T00:37:26;13.87;;;6.30;;
5225;SDS011;2632;51.666;7.146;2023-07-22T00:39:53;14.67;;;6.80;;
5225;SDS011;2632;51.666;7.146;2023-07-22T00:42:21;17.77;;;6.53;;
5225;SDS011;2632;51.666;7.146;2023-07-22T00:44:47;16.73;;;6.77;;
5225;SDS011;2632;51.666;7.146;2023-07-22T00:47:14;12.80;;;5.43;;
5225;SDS011;2632;51.666;7.146;2023-07-22T00:49:41;14.20;;;6.77;;
5225;SDS011;2632;51.666;7.146;2023-07-22T00:52:09;13.50;;;6.90;;
5225;SDS011;2632;51.666;7.146;2023-07-22T00:54:35;13.27;;;6.70;;
5225;SDS011;2632;51.666;7.146;2023-07-22T00:57:02;15.13;;;7.03;;
5225;SDS011;2632;51.666;7.146;2023-07-22T00:59:29;16.43;;;6.30;;
5225;SDS011;2632;51.666;7.146;2023-07-22T01:01:56;16.17;;;6.53;;
5225;SDS011;2632;51.666;7.146;2023-07-22T01:04:23;18.67;;;6.83;;
5225;SDS011;2632;51.666;7.146;2023-07-22T01:06:51;15.13;;;7.30;;
5225;SDS011;2632;51.666;7.146;2023-07-22T01:09:21;14.83;;;7.00;;
5225;SDS011;2632;51.666;7.146;2023-07-22T01:11:48;18.87;;;8.63;;
5225;SDS011;2632;51.666;7.146;2023-07-22T01:14:15;14.83;;;6.10;;
5225;SDS011;2632;51.666;7.146;2023-07-22T01:16:41;16.87;;;7.13;;
5225;SDS011;2632;51.666;7.146;2023-07-22T01:19:08;14.30;;;6.70;;
5225;SDS011;2632;51.666;7.146;2023-07-22T01:21:39;16.57;;;6.73;;
5225;SDS011;2632;51.666;7.146;2023-07-22T01:24:07;16.40;;;7.07;;
5225;SDS011;2632;51.666;7.146;2023-07-22T01:26:34;19.77;;;8.00;;
5225;SDS011;2632;51.666;7.146;2023-07-22T01:29:02;17.83;;;8.00;;
5225;SDS011;2632;51.666;7.146;2023-07-22T01:31:30;16.37;;;6.90;;
5225;SDS011;2632;51.666;7.146;2023-07-22T01:33:56;19.57;;;8.30;;
5225;SDS011;2632;51.666;7.146;2023-07-22T01:36:24;18.80;;;7.60;;
5225;SDS011;2632;51.666;7.146;2023-07-22T01:38:51;15.80;;;7.57;;
5225;SDS011;2632;51.666;7.146;2023-07-22T01:41:18;16.93;;;8.03;;
5225;SDS011;2632;51.666;7.146;2023-07-22T01:43:45;16.93;;;7.17;;
5225;SDS011;2632;51.666;7.146;2023-07-22T01:46:11;15.87;;;7.77;;
5225;SDS011;2632;51.666;7.146;2023-07-22T01:48:38;17.90;;;7.73;;
5225;SDS011;2632;51.666;7.146;2023-07-22T01:51:05;19.80;;;7.57;;
5225;SDS011;2632;51.666;7.146;2023-07-22T01:53:31;20.70;;;7.90;;
5225;SDS011;2632;51.666;7.146;2023-07-22T01:55:58;17.17;;;7.67;;
5225;SDS011;2632;51.666;7.146;2023-07-22T01:58:25;21.13;;;8.73;;
5225;SDS011;2632;51.666;7.146;2023-07-22T02:00:52;17.87;;;7.60;;
5225;SDS011;2632;51.666;7.146;2023-07-22T02:03:18;20.70;;;8.70;;
5225;SDS011;2632;51.666;7.146;2023-07-22T02:05:46;16.97;;;7.77;;
5225;SDS011;2632;51.666;7.146;2023-07-22T02:08:13;17.13;;;7.70;;
5225;SDS011;2632;51.666;7.146;2023-07-22T02:10:40;20.07;;;8.57;;
5225;SDS011;2632;51.666;7.146;2023-07-22T02:13:06;18.60;;;8.30;;
5225;SDS011;2632;51.666;7.146;2023-07-22T02:15:33;20.37;;;8.97;;
5225;SDS011;2632;51.666;7.146;2023-07-22T02:18:00;18.57;;;8.10;;
5225;SDS011;2632;51.666;7.146;2023-07-22T02:20:27;18.83;;;7.27;;
5225;SDS011;2632;51.666;7.146;2023-07-22T02:22:55;19.10;;;7.80;;
5225;SDS011;2632;51.666;7.146;2023-07-22T02:25:22;18.27;;;7.87;;
5225;SDS011;2632;51.666;7.146;2023-07-22T02:27:49;18.00;;;8.10;;
5225;SDS011;2632;51.666;7.146;2023-07-22T02:30:16;20.03;;;7.77;;
5225;SDS011;2632;51.666;7.146;2023-07-22T02:32:43;18.57;;;8.10;;
5225;SDS011;2632;51.666;7.146;2023-07-22T02:35:11;16.87;;;7.77;;
5225;SDS011;2632;51.666;7.146;2023-07-22T02:37:38;15.87;;;7.57;;
5225;SDS011;2632;51.666;7.146;2023-07-22T02:40:05;18.40;;;7.43;;
5225;SDS011;2632;51.666;7.146;2023-07-22T02:42:37;20.40;;;8.43;;
5225;SDS011;2632;51.666;7.146;2023-07-22T02:45:05;16.80;;;7.63;;
5225;SDS011;2632;51.666;7.146;2023-07-22T02:47:34;15.83;;;7.23;;
5225;SDS011;2632;51.666;7.146;2023-07-22T02:50:01;15.87;;;7.60;;
5225;SDS011;2632;51.666;7.146;2023-07-22T02:52:28;20.03;;;7.90;;
5225;SDS011;2632;51.666;7.146;2023-07-22T02:55:06;17.60;;;7.83;;
5225;SDS011;2632;51.666;7.146;2023-07-22T02:57:37;16.13;;;7.60;;
5225;SDS011;2632;51.666;7.146;2023-07-22T03:00:05;16.03;;;8.03;;
5225;SDS011;2632;51.666;7.146;2023-07-22T03:02:38;22.33;;;7.57;;
5225;SDS011;2632;51.666;7.146;2023-07-22T03:05:06;19.00;;;7.13;;
5225;SDS011;2632;51.666;7.146;2023-07-22T03:07:35;23.40;;;7.60;;
5225;SDS011;2632;51.666;7.146;2023-07-22T03:10:02;18.00;;;8.23;;
5225;SDS011;2632;51.666;7.146;2023-07-22T03:12:30;16.10;;;7.33;;
5225;SDS011;2632;51.666;7.146;2023-07-22T03:14:56;14.63;;;7.10;;
5225;SDS011;2632;51.666;7.146;2023-07-22T03:17:23;14.90;;;6.93;;
5225;SDS011;2632;51.666;7.146;2023-07-22T03:19:50;15.83;;;7.63;;
5225;SDS011;2632;51.666;7.146;2023-07-22T03:22:17;19.73;;;7.40;;
5225;SDS011;2632;51.666;7.146;2023-07-22T03:24:45;14.90;;;7.30;;
5225;SDS011;2632;51.666;7.146;2023-07-22T03:27:12;16.03;;;7.70;;
5225;SDS011;2632;51.666;7.146;2023-07-22T03:29:40;15.07;;;7.10;;
5225;SDS011;2632;51.666;7.146;2023-07-22T03:32:07;16.27;;;7.10;;
5225;SDS011;2632;51.666;7.146;2023-07-22T03:34:35;15.03;;;7.27;;
5225;SDS011;2632;51.666;7.146;2023-07-22T03:37:01;19.90;;;8.63;;
5225;SDS011;2632;51.666;7.146;2023-07-22T03:39:28;16.60;;;7.80;;
5225;SDS011;2632;51.666;7.146;2023-07-22T03:41:55;17.70;;;7.40;;
5225;SDS011;2632;51.666;7.146;2023-07-22T03:44:21;16.23;;;8.20;;
5225;SDS011;2632;51.666;7.146;2023-07-22T03:46:48;24.63;;;9.33;;
5225;SDS011;2632;51.666;7.146;2023-07-22T03:49:15;22.37;;;8.17;;
5225;SDS011;2632;51.666;7.146;2023-07-22T03:51:41;20.50;;;8.47;;
5225;SDS011;2632;51.666;7.146;2023-07-22T03:54:08;20.37;;;8.50;;
5225;SDS011;2632;51.666;7.146;2023-07-22T03:56:35;17.53;;;8.40;;
5225;SDS011;2632;51.666;7.146;2023-07-22T03:59:02;15.90;;;7.93;;
5225;SDS011;2632;51.666;7.146;2023-07-22T04:01:29;22.40;;;9.67;;
5225;SDS011;2632;51.666;7.146;2023-07-22T04:03:56;18.00;;;8.10;;
5225;SDS011;2632;51.666;7.146;2023-07-22T04:06:22;19.60;;;9.27;;
5225;SDS011;2632;51.666;7.146;2023-07-22T04:08:49;21.53;;;9.27;;
5225;SDS011;2632;51.666;7.146;2023-07-22T04:11:16;17.70;;;8.97;;
5225;SDS011;2632;51.666;7.146;2023-07-22T04:13:43;19.57;;;8.17;;
5225;SDS011;2632;51.666;7.146;2023-07-22T04:16:09;19.23;;;8.27;;
5225;SDS011;2632;51.666;7.146;2023-07-22T04:18:36;15.67;;;8.27;;
5225;SDS011;2632;51.666;7.146;2023-07-22T04:21:02;20.83;;;8.23;;
5225;SDS011;2632;51.666;7.146;2023-07-22T04:23:29;16.70;;;8.10;;
5225;SDS011;2632;51.666;7.146;2023-07-22T04:25:57;19.27;;;8.93;;
5225;SDS011;2632;51.666;7.146;2023-07-22T04:28:24;20.80;;;9.10;;
5225;SDS011;2632;51.666;7.146;2023-07-22T04:30:57;15.20;;;7.30;;
5225;SDS011;2632;51.666;7.146;2023-07-22T04:33:25;20.37;;;7.70;;
5225;SDS011;2632;51.666;7.146;2023-07-22T04:35:58;16.93;;;8.17;;
5225;SDS011;2632;51.666;7.146;2023-07-22T04:38:26;16.77;;;7.90;;
5225;SDS011;2632;51.666;7.146;2023-07-22T04:40:52;18.63;;;8.67;;
5225;SDS011;2632;51.666;7.146;2023-07-22T04:43:19;16.53;;;8.07;;
5225;SDS011;2632;51.666;7.146;2023-07-22T04:45:48;18.30;;;8.00;;
5225;SDS011;2632;51.666;7.146;2023-07-22T04:48:15;15.43;;;7.97;;
5225;SDS011;2632;51.666;7.146;2023-07-22T04:50:43;20.47;;;8.33;;
5225;SDS011;2632;51.666;7.146;2023-07-22T04:53:11;16.63;;;8.10;;
5225;SDS011;2632;51.666;7.146;2023-07-22T04:55:40;15.60;;;8.03;;
5225;SDS011;2632;51.666;7.146;2023-07-22T04:58:07;19.00;;;8.07;;
5225;SDS011;2632;51.666;7.146;2023-07-22T05:00:36;16.80;;;7.50;;
5225;SDS011;2632;51.666;7.146;2023-07-22T05:03:04;17.73;;;6.90;;
5225;SDS011;2632;51.666;7.146;2023-07-22T05:05:31;12.40;;;6.10;;
5225;SDS011;2632;51.666;7.146;2023-07-22T05:07:58;18.90;;;7.37;;
5225;SDS011;2632;51.666;7.146;2023-07-22T05:10:25;22.53;;;7.70;;
5225;SDS011;2632;51.666;7.146;2023-07-22T05:12:51;20.73;;;7.47;;
5225;SDS011;2632;51.666;7.146;2023-07-22T05:15:18;18.07;;;7.73;;
5225;SDS011;2632;51.666;7.146;2023-07-22T05:17:45;26.97;;;8.50;;
5225;SDS011;2632;51.666;7.146;2023-07-22T05:20:12;21.27;;;8.07;;
5225;SDS011;2632;51.666;7.146;2023-07-22T05:22:39;20.43;;;8.97;;
5225;SDS011;2632;51.666;7.146;2023-07-22T05:25:06;15.90;;;6.90;;
5225;SDS011;2632;51.666;7.146;2023-07-22T05:27:34;26.47;;;8.20;;
5225;SDS011;2632;51.666;7.146;2023-07-22T05:30:01;19.60;;;8.10;;
5225;SDS011;2632;51.666;7.146;2023-07-22T05:32:28;20.30;;;8.17;;
5225;SDS011;2632;51.666;7.146;2023-07-22T05:34:59;22.90;;;8.10;;
5225;SDS011;2632;51.666;7.146;2023-07-22T05:37:27;24.03;;;8.83;;
5225;SDS011;2632;51.666;7.146;2023-07-22T05:39:54;20.83;;;7.93;;
5225;SDS011;2632;51.666;7.146;2023-07-22T05:42:21;18.37;;;7.50;;
5225;SDS011;2632;51.666;7.146;2023-07-22T05:44:47;20.13;;;8.50;;
5225;SDS011;2632;51.666;7.146;2023-07-22T05:47:14;16.20;;;8.17;;
5225;SDS011;2632;51.666;7.146;2023-07-22T05:49:44;20.53;;;8.27;;
5225;SDS011;2632;51.666;7.146;2023-07-22T05:52:11;20.63;;;8.03;;
5225;SDS011;2632;51.666;7.146;2023-07-22T05:54:37;16.67;;;8.40;;
5225;SDS011;2632;51.666;7.146;2023-07-22T05:57:04;21.27;;;8.63;;
5225;SDS011;2632;51.666;7.146;2023-07-22T05:59:31;20.70;;;8.20;;
5225;SDS011;2632;51.666;7.146;2023-07-22T06:01:58;20.67;;;8.83;;
5225;SDS011;2632;51.666;7.146;2023-07-22T06:04:25;22.03;;;8.67;;
5225;SDS011;2632;51.666;7.146;2023-07-22T06:06:52;20.73;;;8.90;;
5225;SDS011;2632;51.666;7.146;2023-07-22T06:09:18;20.53;;;8.80;;
5225;SDS011;2632;51.666;7.146;2023-07-22T06:11:46;23.97;;;9.00;;
5225;SDS011;2632;51.666;7.146;2023-07-22T06:14:15;21.30;;;8.80;;
5225;SDS011;2632;51.666;7.146;2023-07-22T06:16:41;22.77;;;8.53;;
5225;SDS011;2632;51.666;7.146;2023-07-22T06:19:08;24.63;;;8.30;;
5225;SDS011;2632;51.666;7.146;2023-07-22T06:21:34;21.43;;;9.23;;
5225;SDS011;2632;51.666;7.146;2023-07-22T06:24:01;19.00;;;8.60;;
5225;SDS011;2632;51.666;7.146;2023-07-22T06:26:28;19.80;;;7.63;;
5225;SDS011;2632;51.666;7.146;2023-07-22T06:28:55;15.77;;;7.17;;
5225;SDS011;2632;51.666;7.146;2023-07-22T06:31:22;19.70;;;8.20;;
5225;SDS011;2632;51.666;7.146;2023-07-22T06:33:48;20.97;;;8.37;;
5225;SDS011;2632;51.666;7.146;2023-07-22T06:36:15;17.07;;;7.93;;
5225;SDS011;2632;51.666;7.146;2023-07-22T06:38:43;18.97;;;7.40;;
5225;SDS011;2632;51.666;7.146;2023-07-22T06:41:10;19.37;;;9.10;;
5225;SDS011;2632;51.666;7.146;2023-07-22T06:43:37;14.50;;;7.80;;
5225;SDS011;2632;51.666;7.146;2023-07-22T06:46:03;18.03;;;7.90;;
5225;SDS011;2632;51.666;7.146;2023-07-22T06:48:30;19.90;;;8.03;;
5225;SDS011;2632;51.666;7.146;2023-07-22T06:50:57;20.20;;;7.60;;
5225;SDS011;2632;51.666;7.146;2023-07-22T06:53:23;23.07;;;8.50;;
5225;SDS011;2632;51.666;7.146;2023-07-22T06:55:51;22.07;;;8.30;;
5225;SDS011;2632;51.666;7.146;2023-07-22T06:58:21;15.77;;;7.67;;
5225;SDS011;2632;51.666;7.146;2023-07-22T07:00:53;18.27;;;7.73;;
5225;SDS011;2632;51.666;7.146;2023-07-22T07:03:22;19.23;;;8.33;;
5225;SDS011;2632;51.666;7.146;2023-07-22T07:05:53;17.03;;;8.50;;
5225;SDS011;2632;51.666;7.146;2023-07-22T07:08:20;18.77;;;9.03;;
5225;SDS011;2632;51.666;7.146;2023-07-22T07:10:48;18.23;;;9.00;;
5225;SDS011;2632;51.666;7.146;2023-07-22T07:13:15;22.43;;;9.40;;
5225;SDS011;2632;51.666;7.146;2023-07-22T07:15:45;22.03;;;8.60;;
5225;SDS011;2632;51.666;7.146;2023-07-22T07:18:13;18.73;;;8.53;;
5225;SDS011;2632;51.666;7.146;2023-07-22T07:20:40;17.13;;;7.97;;
5225;SDS011;2632;51.666;7.146;2023-07-22T07:23:06;15.50;;;7.83;;
5225;SDS011;2632;51.666;7.146;2023-07-22T07:25:33;22.60;;;8.67;;
5225;SDS011;2632;51.666;7.146;2023-07-22T07:27:59;21.70;;;9.27;;
5225;SDS011;2632;51.666;7.146;2023-07-22T07:30:26;22.10;;;8.30;;
5225;SDS011;2632;51.666;7.146;2023-07-22T07:32:53;15.97;;;6.97;;
5225;SDS011;2632;51.666;7.146;2023-07-22T07:35:19;18.40;;;8.00;;
5225;SDS011;2632;51.666;7.146;2023-07-22T07:37:46;17.70;;;8.47;;
5225;SDS011;2632;51.666;7.146;2023-07-22T07:40:13;17.60;;;7.57;;
5225;SDS011;2632;51.666;7.146;2023-07-22T07:42:39;19.63;;;7.97;;
5225;SDS011;2632;51.666;7.146;2023-07-22T07:45:06;19.67;;;8.30;;
5225;SDS011;2632;51.666;7.146;2023-07-22T07:47:33;18.83;;;7.70;;
5225;SDS011;2632;51.666;7.146;2023-07-22T07:50:01;16.60;;;7.13;;
5225;SDS011;2632;51.666;7.146;2023-07-22T07:52:29;16.67;;;8.00;;
5225;SDS011;2632;51.666;7.146;2023-07-22T07:54:55;19.70;;;7.80;;
5225;SDS011;2632;51.666;7.146;2023-07-22T07:57:22;18.10;;;7.67;;
5225;SDS011;2632;51.666;7.146;2023-07-22T07:59:49;13.67;;;6.63;;
5225;SDS011;2632;51.666;7.146;2023-07-22T08:02:15;17.73;;;7.47;;
5225;SDS011;2632;51.666;7.146;2023-07-22T08:04:42;16.13;;;6.90;;
5225;SDS011;2632;51.666;7.146;2023-07-22T08:07:09;11.53;;;6.40;;
5225;SDS011;2632;51.666;7.146;2023-07-22T08:09:36;16.10;;;6.50;;
5225;SDS011;2632;51.666;7.146;2023-07-22T08:12:03;13.07;;;6.63;;
5225;SDS011;2632;51.666;7.146;2023-07-22T08:14:30;15.17;;;6.97;;
5225;SDS011;2632;51.666;7.146;2023-07-22T08:16:57;13.37;;;6.60;;
5225;SDS011;2632;51.666;7.146;2023-07-22T08:19:23;14.90;;;6.20;;
5225;SDS011;2632;51.666;7.146;2023-07-22T08:21:50;14.20;;;6.23;;
5225;SDS011;2632;51.666;7.146;2023-07-22T08:24:16;14.30;;;5.97;;
5225;SDS011;2632;51.666;7.146;2023-07-22T08:26:45;17.07;;;6.33;;
5225;SDS011;2632;51.666;7.146;2023-07-22T08:29:12;14.43;;;6.40;;
5225;SDS011;2632;51.666;7.146;2023-07-22T08:31:38;12.73;;;6.20;;
5225;SDS011;2632;51.666;7.146;2023-07-22T08:34:05;12.33;;;6.03;;
5225;SDS011;2632;51.666;7.146;2023-07-22T08:36:32;12.17;;;6.30;;
5225;SDS011;2632;51.666;7.146;2023-07-22T08:38:58;14.20;;;5.33;;
5225;SDS011;2632;51.666;7.146;2023-07-22T08:41:25;14.63;;;5.90;;
5225;SDS011;2632;51.666;7.146;2023-07-22T08:43:52;13.17;;;6.40;;
5225;SDS011;2632;51.666;7.146;2023-07-22T08:46:20;11.57;;;5.73;;
5225;SDS011;2632;51.666;7.146;2023-07-22T08:48:49;10.83;;;5.30;;
5225;SDS011;2632;51.666;7.146;2023-07-22T08:51:20;15.03;;;5.23;;
5225;SDS011;2632;51.666;7.146;2023-07-22T08:53:49;12.07;;;4.93;;
5225;SDS011;2632;51.666;7.146;2023-07-22T08:56:20;11.73;;;5.23;;
5225;SDS011;2632;51.666;7.146;2023-07-22T08:58:46;12.27;;;5.70;;
5225;SDS011;2632;51.666;7.146;2023-07-22T09:01:15;10.97;;;4.80;;
5225;SDS011;2632;51.666;7.146;2023-07-22T09:03:42;11.00;;;5.30;;
5225;SDS011;2632;51.666;7.146;2023-07-22T09:06:10;15.70;;;6.07;;
5225;SDS011;2632;51.666;7.146;2023-07-22T09:08:38;11.83;;;4.80;;
5225;SDS011;2632;51.666;7.146;2023-07-22T09:11:05;16.83;;;5.67;;
5225;SDS011;2632;51.666;7.146;2023-07-22T09:13:32;9.97;;;4.83;;
5225;SDS011;2632;51.666;7.146;2023-07-22T09:16:01;11.83;;;5.30;;
5225;SDS011;2632;51.666;7.146;2023-07-22T09:18:28;12.83;;;5.23;;
5225;SDS011;2632;51.666;7.146;2023-07-22T09:20:55;9.90;;;4.93;;
5225;SDS011;2632;51.666;7.146;2023-07-22T09:23:34;11.07;;;5.33;;
5225;SDS011;2632;51.666;7.146;2023-07-22T09:26:16;9.83;;;4.57;;
5225;SDS011;2632;51.666;7.146;2023-07-22T09:28:53;9.70;;;5.27;;
5225;SDS011;2632;51.666;7.146;2023-07-22T09:31:22;9.23;;;4.80;;
5225;SDS011;2632;51.666;7.146;2023-07-22T09:33:54;11.00;;;5.00;;
5225;SDS011;2632;51.666;7.146;2023-07-22T09:36:20;10.23;;;5.23;;
5225;SDS011;2632;51.666;7.146;2023-07-22T09:39:00;11.90;;;5.43;;
5225;SDS011;2632;51.666;7.146;2023-07-22T09:41:29;11.30;;;5.60;;
5225;SDS011;2632;51.666;7.146;2023-07-22T09:43:56;12.07;;;5.70;;
5225;SDS011;2632;51.666;7.146;2023-07-22T09:46:23;11.30;;;4.97;;
5225;SDS011;2632;51.666;7.146;2023-07-22T09:49:01;10.70;;;5.00;;
5225;SDS011;2632;51.666;7.146;2023-07-22T09:51:34;13.27;;;5.03;;
5225;SDS011;2632;51.666;7.146;2023-07-22T09:54:22;10.50;;;4.80;;
5225;SDS011;2632;51.666;7.146;2023-07-22T09:56:49;10.63;;;4.93;;
5225;SDS011;2632;51.666;7.146;2023-07-22T09:59:19;12.20;;;5.47;;
5225;SDS011;2632;51.666;7.146;2023-07-22T10:01:49;11.50;;;5.60;;
5225;SDS011;2632;51.666;7.146;2023-07-22T10:04:17;11.70;;;5.10;;
5225;SDS011;2632;51.666;7.146;2023-07-22T10:06:46;11.20;;;5.17;;
5225;SDS011;2632;51.666;7.146;2023-07-22T10:09:13;14.07;;;4.13;;
5225;SDS011;2632;51.666;7.146;2023-07-22T10:11:41;8.30;;;4.33;;
5225;SDS011;2632;51.666;7.146;2023-07-22T10:14:08;9.83;;;4.30;;
5225;SDS011;2632;51.666;7.146;2023-07-22T10:16:36;10.67;;;5.13;;
5225;SDS011;2632;51.666;7.146;2023-07-22T10:19:03;9.27;;;4.33;;
5225;SDS011;2632;51.666;7.146;2023-07-22T10:21:31;10.40;;;4.00;;
5225;SDS011;2632;51.666;7.146;2023-07-22T10:24:00;9.27;;;4.40;;
5225;SDS011;2632;51.666;7.146;2023-07-22T10:26:27;12.10;;;4.30;;
5225;SDS011;2632;51.666;7.146;2023-07-22T10:29:12;9.33;;;3.80;;
5225;SDS011;2632;51.666;7.146;2023-07-22T10:31:40;8.83;;;4.20;;
5225;SDS011;2632;51.666;7.146;2023-07-22T10:34:06;9.00;;;4.00;;
5225;SDS011;2632;51.666;7.146;2023-07-22T10:36:34;8.53;;;3.30;;
5225;SDS011;2632;51.666;7.146;2023-07-22T10:39:02;10.33;;;3.60;;
5225;SDS011;2632;51.666;7.146;2023-07-22T10:41:30;8.73;;;3.87;;
5225;SDS011;2632;51.666;7.146;2023-07-22T10:43:59;10.83;;;4.10;;
5225;SDS011;2632;51.666;7.146;2023-07-22T10:46:36;8.57;;;4.03;;
5225;SDS011;2632;51.666;7.146;2023-07-22T10:49:11;9.60;;;3.77;;
5225;SDS011;2632;51.666;7.146;2023-07-22T10:51:39;7.70;;;3.70;;
5225;SDS011;2632;51.666;7.146;2023-07-22T10:54:12;8.03;;;3.50;;
5225;SDS011;2632;51.666;7.146;2023-07-22T10:56:43;6.83;;;3.50;;
5225;SDS011;2632;51.666;7.146;2023-07-22T10:59:10;7.47;;;3.47;;
5225;SDS011;2632;51.666;7.146;2023-07-22T11:01:43;7.30;;;3.40;;
5225;SDS011;2632;51.666;7.146;2023-07-22T11:07:05;7.60;;;3.50;;
5225;SDS011;2632;51.666;7.146;2023-07-22T11:09:35;7.40;;;3.40;;
5225;SDS011;2632;51.666;7.146;2023-07-22T11:12:12;12.80;;;3.67;;
5225;SDS011;2632;51.666;7.146;2023-07-22T11:14:48;6.43;;;2.90;;
5225;SDS011;2632;51.666;7.146;2023-07-22T11:17:17;7.40;;;2.63;;
5225;SDS011;2632;51.666;7.146;2023-07-22T11:19:54;9.30;;;2.90;;
5225;SDS011;2632;51.666;7.146;2023-07-22T11:22:22;10.00;;;3.47;;
5225;SDS011;2632;51.666;7.146;2023-07-22T11:24:48;9.60;;;3.60;;
5225;SDS011;2632;51.666;7.146;2023-07-22T11:27:15;8.90;;;3.17;;
5225;SDS011;2632;51.666;7.146;2023-07-22T11:29:42;7.57;;;2.93;;
5225;SDS011;2632;51.666;7.146;2023-07-22T11:32:15;7.73;;;3.00;;
5225;SDS011;2632;51.666;7.146;2023-07-22T11:34:44;6.50;;;2.93;;
5225;SDS011;2632;51.666;7.146;2023-07-22T11:37:11;7.67;;;3.50;;
5225;SDS011;2632;51.666;7.146;2023-07-22T11:39:37;8.23;;;3.13;;
5225;SDS011;2632;51.666;7.146;2023-07-22T11:42:04;7.47;;;3.23;;
5225;SDS011;2632;51.666;7.146;2023-07-22T11:44:32;8.17;;;3.00;;
5225;SDS011;2632;51.666;7.146;2023-07-22T11:47:00;7.87;;;3.33;;
5225;SDS011;2632;51.666;7.146;2023-07-22T11:49:37;6.03;;;2.87;;
5225;SDS011;2632;51.666;7.146;2023-07-22T11:52:09;6.20;;;2.77;;
5225;SDS011;2632;51.666;7.146;2023-07-22T11:54:44;5.33;;;2.17;;
5225;SDS011;2632;51.666;7.146;2023-07-22T11:57:15;7.57;;;2.90;;
5225;SDS011;2632;51.666;7.146;2023-07-22T11:59:44;6.07;;;2.70;;
5225;SDS011;2632;51.666;7.146;2023-07-22T12:02:16;6.67;;;3.27;;
5225;SDS011;2632;51.666;7.146;2023-07-22T12:04:51;6.13;;;2.60;;
5225;SDS011;2632;51.666;7.146;2023-07-22T12:07:25;6.97;;;2.70;;
5225;SDS011;2632;51.666;7.146;2023-07-22T12:09:53;7.33;;;3.23;;
5225;SDS011;2632;51.666;7.146;2023-07-22T12:12:31;6.90;;;3.10;;
5225;SDS011;2632;51.666;7.146;2023-07-22T12:15:23;8.57;;;3.00;;
5225;SDS011;2632;51.666;7.146;2023-07-22T12:20:31;6.67;;;2.83;;
5225;SDS011;2632;51.666;7.146;2023-07-22T12:23:00;8.30;;;2.43;;
5225;SDS011;2632;51.666;7.146;2023-07-22T12:25:26;9.23;;;2.73;;
5225;SDS011;2632;51.666;7.146;2023-07-22T12:27:53;7.83;;;2.63;;
5225;SDS011;2632;51.666;7.146;2023-07-22T12:30:20;5.87;;;2.50;;
5225;SDS011;2632;51.666;7.146;2023-07-22T12:32:47;5.77;;;2.53;;
5225;SDS011;2632;51.666;7.146;2023-07-22T12:35:15;6.37;;;2.33;;
5225;SDS011;2632;51.666;7.146;2023-07-22T12:37:42;8.97;;;2.60;;
5225;SDS011;2632;51.666;7.146;2023-07-22T12:40:08;6.87;;;3.07;;
5225;SDS011;2632;51.666;7.146;2023-07-22T12:42:38;5.00;;;2.33;;
5225;SDS011;2632;51.666;7.146;2023-07-22T12:45:05;9.03;;;2.80;;
5225;SDS011;2632;51.666;7.146;2023-07-22T12:47:32;5.70;;;2.50;;
5225;SDS011;2632;51.666;7.146;2023-07-22T12:49:58;6.67;;;2.50;;
5225;SDS011;2632;51.666;7.146;2023-07-22T12:52:25;5.57;;;2.50;;
5225;SDS011;2632;51.666;7.146;2023-07-22T12:54:52;5.27;;;2.10;;
5225;SDS011;2632;51.666;7.146;2023-07-22T12:57:19;6.20;;;2.63;;
5225;SDS011;2632;51.666;7.146;2023-07-22T12:59:45;6.07;;;2.83;;
5225;SDS011;2632;51.666;7.146;2023-07-22T13:02:14;8.10;;;2.53;;
5225;SDS011;2632;51.666;7.146;2023-07-22T13:04:42;6.90;;;2.30;;
5225;SDS011;2632;51.666;7.146;2023-07-22T13:07:10;6.20;;;2.00;;
5225;SDS011;2632;51.666;7.146;2023-07-22T13:09:36;5.33;;;2.00;;
5225;SDS011;2632;51.666;7.146;2023-07-22T13:12:03;4.93;;;2.03;;
5225;SDS011;2632;51.666;7.146;2023-07-22T13:14:30;6.83;;;1.90;;
5225;SDS011;2632;51.666;7.146;2023-07-22T13:16:57;5.33;;;1.93;;
5225;SDS011;2632;51.666;7.146;2023-07-22T13:19:24;5.80;;;1.90;;
5225;SDS011;2632;51.666;7.146;2023-07-22T13:21:51;5.40;;;2.07;;
5225;SDS011;2632;51.666;7.146;2023-07-22T13:24:17;5.83;;;1.83;;
5225;SDS011;2632;51.666;7.146;2023-07-22T13:26:44;7.27;;;2.27;;
5225;SDS011;2632;51.666;7.146;2023-07-22T13:29:11;8.20;;;2.53;;
5225;SDS011;2632;51.666;7.146;2023-07-22T13:31:38;6.07;;;2.47;;
5225;SDS011;2632;51.666;7.146;2023-07-22T13:34:05;7.90;;;4.20;;
5225;SDS011;2632;51.666;7.146;2023-07-22T13:36:32;6.43;;;2.50;;
5225;SDS011;2632;51.666;7.146;2023-07-22T13:38:58;6.70;;;3.20;;
5225;SDS011;2632;51.666;7.146;2023-07-22T13:41:25;10.30;;;5.27;;
5225;SDS011;2632;51.666;7.146;2023-07-22T13:43:52;8.93;;;3.13;;
5225;SDS011;2632;51.666;7.146;2023-07-22T13:46:19;9.93;;;5.57;;
5225;SDS011;2632;51.666;7.146;2023-07-22T13:48:46;5.87;;;1.97;;
5225;SDS011;2632;51.666;7.146;2023-07-22T13:51:12;7.00;;;2.50;;
5225;SDS011;2632;51.666;7.146;2023-07-22T13:53:39;5.80;;;2.50;;
5225;SDS011;2632;51.666;7.146;2023-07-22T13:56:06;6.90;;;3.00;;
5225;SDS011;2632;51.666;7.146;2023-07-22T13:58:33;7.67;;;2.70;;
5225;SDS011;2632;51.666;7.146;2023-07-22T14:00:59;5.80;;;2.77;;
5225;SDS011;2632;51.666;7.146;2023-07-22T14:03:28;6.43;;;2.70;;
5225;SDS011;2632;51.666;7.146;2023-07-22T14:05:54;5.63;;;2.10;;
5225;SDS011;2632;51.666;7.146;2023-07-22T14:08:22;6.50;;;2.30;;
5225;SDS011;2632;51.666;7.146;2023-07-22T14:10:48;6.20;;;2.23;;
5225;SDS011;2632;51.666;7.146;2023-07-22T14:13:15;6.30;;;2.40;;
5225;SDS011;2632;51.666;7.146;2023-07-22T14:15:42;7.17;;;2.50;;
5225;SDS011;2632;51.666;7.146;2023-07-22T14:18:09;7.97;;;2.73;;
5225;SDS011;2632;51.666;7.146;2023-07-22T14:20:35;5.63;;;2.30;;
5225;SDS011;2632;51.666;7.146;2023-07-22T14:23:02;9.60;;;2.70;;
5225;SDS011;2632;51.666;7.146;2023-07-22T14:25:30;6.57;;;2.20;;
5225;SDS011;2632;51.666;7.146;2023-07-22T14:27:57;6.77;;;2.20;;
5225;SDS011;2632;51.666;7.146;2023-07-22T14:30:24;6.57;;;2.47;;
5225;SDS011;2632;51.666;7.146;2023-07-22T14:32:50;6.30;;;2.30;;
5225;SDS011;2632;51.666;7.146;2023-07-22T14:35:17;6.80;;;2.33;;
5225;SDS011;2632;51.666;7.146;2023-07-22T14:37:44;7.80;;;2.70;;
5225;SDS011;2632;51.666;7.146;2023-07-22T14:40:12;6.10;;;2.80;;
5225;SDS011;2632;51.666;7.146;2023-07-22T14:42:39;7.70;;;2.50;;
5225;SDS011;2632;51.666;7.146;2023-07-22T14:45:06;5.10;;;2.10;;
5225;SDS011;2632;51.666;7.146;2023-07-22T14:47:33;9.23;;;2.40;;
5225;SDS011;2632;51.666;7.146;2023-07-22T14:50:01;8.10;;;2.40;;
5225;SDS011;2632;51.666;7.146;2023-07-22T14:52:28;5.47;;;2.50;;
5225;SDS011;2632;51.666;7.146;2023-07-22T14:54:54;5.40;;;2.20;;
5225;SDS011;2632;51.666;7.146;2023-07-22T14:57:21;6.40;;;2.10;;
5225;SDS011;2632;51.666;7.146;2023-07-22T14:59:48;6.10;;;2.40;;
5225;SDS011;2632;51.666;7.146;2023-07-22T15:02:14;6.40;;;2.23;;
5225;SDS011;2632;51.666;7.146;2023-07-22T15:04:41;5.70;;;2.50;;
5225;SDS011;2632;51.666;7.146;2023-07-22T15:07:08;7.83;;;2.50;;
5225;SDS011;2632;51.666;7.146;2023-07-22T15:09:34;7.40;;;2.30;;
5225;SDS011;2632;51.666;7.146;2023-07-22T15:12:01;6.17;;;2.60;;
5225;SDS011;2632;51.666;7.146;2023-07-22T15:14:28;6.73;;;2.47;;